createdAt,value
2018-10-02T00:00:24.009Z,10.92
2018-10-02T00:01:23.955Z,11.02
2018-10-02T00:02:23.961Z,11.00
2018-10-02T00:03:23.967Z,10.98
2018-10-02T00:04:24.000Z,11.01
2018-10-02T00:05:24.017Z,10.95
2018-10-02T00:06:24.030Z,11.00
2018-10-02T00:07:24.014Z,11.00
2018-10-02T00:08:23.998Z,11.00
2018-10-02T00:09:24.015Z,11.01
2018-10-02T00:10:24.022Z,11.04
2018-10-02T00:11:24.076Z,10.98
2018-10-02T00:12:24.105Z,11.00
2018-10-02T00:13:24.123Z,11.00
2018-10-02T00:14:24.446Z,11.02
2018-10-02T00:15:24.037Z,11.01
2018-10-02T00:16:24.071Z,11.01
2018-10-02T00:17:24.076Z,11.01
2018-10-02T00:18:24.077Z,11.00
2018-10-02T00:19:24.060Z,11.00
2018-10-02T00:20:24.066Z,11.00
2018-10-02T00:21:24.116Z,10.95
2018-10-02T00:22:24.100Z,11.02
2018-10-02T00:23:24.089Z,11.04
2018-10-02T00:24:24.095Z,10.97
2018-10-02T00:25:24.115Z,10.95
2018-10-02T00:26:24.098Z,10.98
2018-10-02T00:27:24.144Z,10.89
2018-10-02T00:28:24.106Z,10.83
2018-10-02T00:29:24.149Z,10.84
2018-10-02T00:30:24.120Z,10.87
2018-10-02T00:31:24.204Z,10.83
2018-10-02T00:32:24.285Z,10.84
2018-10-02T00:33:24.149Z,10.79
2018-10-02T00:34:24.167Z,10.83
2018-10-02T00:35:24.152Z,10.79
2018-10-02T00:36:24.164Z,10.80
2018-10-02T00:37:24.164Z,10.83
2018-10-02T00:38:24.227Z,10.82
2018-10-02T00:39:24.221Z,10.77
2018-10-02T00:40:24.186Z,10.83
2018-10-02T00:41:24.190Z,10.83
2018-10-02T00:42:24.199Z,10.87
2018-10-02T00:43:24.216Z,10.89
2018-10-02T00:44:24.218Z,10.86
2018-10-02T00:45:24.227Z,10.86
2018-10-02T00:46:24.222Z,10.71
2018-10-02T00:47:24.220Z,10.67
2018-10-02T00:48:24.236Z,10.58
2018-10-02T00:49:24.246Z,10.64
2018-10-02T00:50:24.283Z,10.71
2018-10-02T00:51:24.268Z,10.61
2018-10-02T00:52:24.258Z,10.62
2018-10-02T00:53:24.260Z,10.65
2018-10-02T00:54:24.265Z,10.64
2018-10-02T00:55:24.288Z,10.59
2018-10-02T00:56:24.299Z,10.68
2018-10-02T00:57:24.516Z,10.64
2018-10-02T00:58:24.294Z,10.59
2018-10-02T00:59:24.304Z,10.65
2018-10-02T01:00:24.294Z,10.59
2018-10-02T01:01:24.305Z,10.59
2018-10-02T01:02:24.343Z,10.58
2018-10-02T01:03:24.306Z,10.59
2018-10-02T01:04:24.338Z,10.58
2018-10-02T01:05:24.318Z,10.51
2018-10-02T01:06:24.328Z,10.43
2018-10-02T01:07:24.381Z,10.46
2018-10-02T01:08:24.340Z,10.55
2018-10-02T01:09:24.346Z,10.43
2018-10-02T01:10:24.356Z,10.61
2018-10-02T01:11:24.412Z,10.53
2018-10-02T01:12:24.419Z,10.61
2018-10-02T01:13:24.402Z,10.58
2018-10-02T01:14:24.390Z,10.58
2018-10-02T01:15:24.373Z,10.62
2018-10-02T01:16:24.435Z,10.55
2018-10-02T01:17:24.413Z,10.58
2018-10-02T01:18:24.434Z,10.58
2018-10-02T01:19:24.420Z,10.49
2018-10-02T01:20:24.407Z,10.48
2018-10-02T01:21:24.414Z,10.53
2018-10-02T01:22:24.450Z,10.59
2018-10-02T01:23:24.425Z,10.48
2018-10-02T01:24:24.452Z,10.58
2018-10-02T01:25:24.607Z,10.45
2018-10-02T01:26:24.439Z,10.42
2018-10-02T01:27:25.329Z,10.58
2018-10-02T01:28:24.948Z,10.48
2018-10-02T01:29:24.607Z,10.53
2018-10-02T01:30:24.476Z,10.51
2018-10-02T01:31:24.480Z,10.62
2018-10-02T01:32:24.487Z,10.57
2018-10-02T01:33:25.464Z,10.43
2018-10-02T01:34:24.512Z,10.55
2018-10-02T01:35:24.488Z,10.45
2018-10-02T01:36:24.515Z,10.49
2018-10-02T01:37:24.507Z,10.45
2018-10-02T01:38:24.521Z,10.53
2018-10-02T01:39:24.506Z,10.46
2018-10-02T01:40:24.537Z,10.33
2018-10-02T01:41:24.517Z,10.41
2018-10-02T01:42:24.567Z,10.38
2018-10-02T01:43:24.559Z,10.42
2018-10-02T01:44:24.540Z,10.39
2018-10-02T01:45:24.577Z,10.38
2018-10-02T01:46:24.545Z,10.36
2018-10-02T01:47:24.611Z,10.28
2018-10-02T01:48:24.555Z,10.33
2018-10-02T01:49:24.563Z,10.33
2018-10-02T01:50:24.563Z,10.34
2018-10-02T01:51:24.578Z,10.21
2018-10-02T01:52:24.582Z,10.20
2018-10-02T01:53:24.606Z,10.18
2018-10-02T01:54:24.589Z,10.07
2018-10-02T01:55:24.604Z,10.20
2018-10-02T01:56:24.605Z,10.07
2018-10-02T01:57:24.614Z,10.06
2018-10-02T01:58:24.650Z,10.10
2018-10-02T01:59:24.655Z,10.07
2018-10-02T02:00:24.621Z,10.12
2018-10-02T02:01:24.659Z,10.06
2018-10-02T02:02:24.644Z,10.09
2018-10-02T02:03:24.648Z,10.05
2018-10-02T02:04:24.665Z,9.95
2018-10-02T02:05:24.655Z,10.06
2018-10-02T02:06:24.672Z,10.07
2018-10-02T02:07:24.661Z,10.12
2018-10-02T02:08:24.701Z,10.17
2018-10-02T02:09:24.699Z,10.06
2018-10-02T02:10:24.704Z,10.07
2018-10-02T02:11:24.710Z,10.15
2018-10-02T02:12:24.694Z,10.05
2018-10-02T02:13:24.687Z,10.06
2018-10-02T02:14:24.690Z,10.07
2018-10-02T02:15:24.739Z,10.00
2018-10-02T02:16:24.713Z,10.03
2018-10-02T02:17:24.719Z,10.05
2018-10-02T02:18:24.738Z,9.94
2018-10-02T02:19:24.721Z,10.02
2018-10-02T02:20:24.771Z,10.06
2018-10-02T02:21:24.741Z,10.06
2018-10-02T02:22:24.765Z,10.06
2018-10-02T02:23:24.744Z,9.95
2018-10-02T02:24:24.750Z,9.94
2018-10-02T02:25:24.758Z,9.94
2018-10-02T02:26:24.823Z,9.97
2018-10-02T02:27:24.776Z,9.91
2018-10-02T02:28:24.768Z,10.00
2018-10-02T02:29:24.832Z,9.99
2018-10-02T02:30:24.792Z,9.97
2018-10-02T02:31:24.804Z,9.97
2018-10-02T02:32:24.799Z,9.94
2018-10-02T02:33:24.869Z,10.06
2018-10-02T02:34:24.805Z,9.88
2018-10-02T02:35:24.817Z,9.90
2018-10-02T02:36:24.820Z,10.00
2018-10-02T02:37:24.830Z,9.95
2018-10-02T02:38:24.823Z,9.94
2018-10-02T02:39:24.881Z,9.84
2018-10-02T02:40:24.862Z,9.90
2018-10-02T02:41:24.837Z,9.94
2018-10-02T02:42:24.891Z,9.90
2018-10-02T02:43:24.886Z,9.90
2018-10-02T02:44:24.873Z,9.87
2018-10-02T02:45:24.883Z,9.90
2018-10-02T02:46:24.872Z,9.91
2018-10-02T02:47:24.910Z,9.90
2018-10-02T02:48:24.889Z,9.95
2018-10-02T02:49:24.930Z,9.87
2018-10-02T02:50:24.900Z,9.81
2018-10-02T02:51:24.899Z,9.82
2018-10-02T02:52:24.903Z,9.87
2018-10-02T02:53:24.904Z,9.77
2018-10-02T02:54:24.971Z,9.91
2018-10-02T02:55:24.913Z,9.77
2018-10-02T02:56:24.924Z,9.90
2018-10-02T02:57:24.940Z,9.90
2018-10-02T02:58:24.938Z,9.81
2018-10-02T02:59:24.931Z,9.64
2018-10-02T03:00:24.965Z,9.72
2018-10-02T03:01:24.980Z,9.66
2018-10-02T03:02:24.956Z,9.76
2018-10-02T03:03:24.971Z,9.81
2018-10-02T03:04:24.966Z,9.87
2018-10-02T03:05:25.017Z,9.85
2018-10-02T03:06:24.972Z,9.85
2018-10-02T03:07:25.000Z,9.77
2018-10-02T03:08:25.003Z,9.77
2018-10-02T03:09:24.997Z,9.74
2018-10-02T03:10:25.005Z,9.77
2018-10-02T03:11:25.008Z,9.80
2018-10-02T03:12:25.035Z,9.80
2018-10-02T03:13:25.017Z,9.82
2018-10-02T03:14:25.025Z,9.73
2018-10-02T03:15:25.020Z,9.90
2018-10-02T03:16:25.026Z,9.72
2018-10-02T03:17:25.053Z,9.81
2018-10-02T03:18:25.043Z,9.77
2018-10-02T03:19:25.100Z,9.81
2018-10-02T03:20:25.055Z,9.73
2018-10-02T03:21:25.045Z,9.88
2018-10-02T03:22:25.086Z,9.88
2018-10-02T03:23:25.061Z,9.85
2018-10-02T03:24:25.071Z,9.80
2018-10-02T03:25:25.077Z,9.87
2018-10-02T03:26:25.125Z,9.88
2018-10-02T03:27:25.088Z,9.67
2018-10-02T03:28:25.084Z,9.70
2018-10-02T03:29:25.116Z,9.76
2018-10-02T03:30:25.113Z,9.81
2018-10-02T03:31:25.108Z,9.87
2018-10-02T03:32:25.116Z,9.88
2018-10-02T03:33:25.137Z,9.76
2018-10-02T03:34:25.116Z,9.73
2018-10-02T03:35:25.156Z,9.81
2018-10-02T03:36:25.162Z,9.80
2018-10-02T03:37:25.141Z,9.87
2018-10-02T03:38:25.144Z,9.85
2018-10-02T03:39:25.280Z,9.77
2018-10-02T03:40:25.198Z,9.81
2018-10-02T03:41:25.178Z,9.84
2018-10-02T03:42:25.168Z,9.90
2018-10-02T03:43:25.176Z,9.95
2018-10-02T03:44:25.198Z,9.94
2018-10-02T03:45:25.186Z,9.87
2018-10-02T03:46:25.219Z,9.88
2018-10-02T03:47:25.259Z,9.92
2018-10-02T03:48:25.207Z,9.92
2018-10-02T03:49:25.200Z,9.90
2018-10-02T03:50:25.208Z,9.87
2018-10-02T03:51:25.237Z,9.87
2018-10-02T03:52:25.263Z,9.82
2018-10-02T03:53:25.239Z,9.85
2018-10-02T03:54:25.304Z,9.76
2018-10-02T03:55:25.317Z,9.84
2018-10-02T03:56:25.227Z,9.81
2018-10-02T03:57:25.243Z,9.76
2018-10-02T03:58:25.295Z,9.73
2018-10-02T03:59:25.242Z,9.80
2018-10-02T04:00:25.253Z,9.74
2018-10-02T04:01:25.257Z,9.87
2018-10-02T04:02:25.305Z,9.76
2018-10-02T04:03:25.367Z,9.77
2018-10-02T04:04:25.281Z,9.80
2018-10-02T04:05:25.308Z,9.77
2018-10-02T04:06:25.287Z,9.77
2018-10-02T04:07:25.303Z,9.70
2018-10-02T04:08:25.301Z,9.80
2018-10-02T04:09:25.317Z,9.69
2018-10-02T04:10:25.316Z,9.73
2018-10-02T04:11:25.469Z,9.67
2018-10-02T04:12:25.396Z,9.80
2018-10-02T04:13:25.400Z,9.76
2018-10-02T04:14:25.331Z,9.81
2018-10-02T04:15:25.360Z,9.81
2018-10-02T04:16:25.647Z,9.81
2018-10-02T04:17:25.338Z,9.81
2018-10-02T04:18:25.353Z,9.77
2018-10-02T04:19:25.376Z,9.69
2018-10-02T04:20:25.382Z,9.69
2018-10-02T04:21:25.375Z,9.70
2018-10-02T04:22:25.383Z,9.73
2018-10-02T04:23:25.400Z,9.64
2018-10-02T04:24:25.381Z,9.74
2018-10-02T04:25:25.414Z,9.77
2018-10-02T04:26:25.386Z,9.76
2018-10-02T04:27:25.403Z,9.72
2018-10-02T04:28:25.421Z,9.67
2018-10-02T04:29:25.442Z,9.76
2018-10-02T04:30:25.428Z,9.81
2018-10-02T04:31:25.418Z,9.76
2018-10-02T04:32:25.459Z,9.74
2018-10-02T04:33:25.435Z,9.67
2018-10-02T04:34:25.428Z,9.72
2018-10-02T04:35:25.456Z,9.77
2018-10-02T04:36:25.433Z,9.80
2018-10-02T04:37:25.493Z,9.77
2018-10-02T04:38:25.454Z,9.67
2018-10-02T04:39:25.513Z,9.72
2018-10-02T04:40:25.469Z,9.67
2018-10-02T04:41:25.488Z,9.73
2018-10-02T04:42:25.499Z,9.70
2018-10-02T04:43:25.509Z,9.64
2018-10-02T04:44:25.506Z,9.56
2018-10-02T04:45:25.602Z,9.58
2018-10-02T04:46:25.577Z,9.56
2018-10-02T04:47:25.509Z,9.55
2018-10-02T04:48:25.519Z,9.66
2018-10-02T04:49:25.550Z,9.72
2018-10-02T04:50:25.552Z,9.72
2018-10-02T04:51:25.545Z,9.69
2018-10-02T04:52:25.565Z,9.66
2018-10-02T04:53:25.531Z,9.64
2018-10-02T04:54:26.006Z,9.74
2018-10-02T04:55:25.570Z,9.69
2018-10-02T04:56:25.551Z,9.69
2018-10-02T04:57:26.354Z,9.69
2018-10-02T04:58:25.705Z,9.66
2018-10-02T04:59:25.710Z,9.66
2018-10-02T05:00:25.653Z,9.72
2018-10-02T05:01:25.638Z,9.85
2018-10-02T05:02:25.965Z,9.76
2018-10-02T05:03:25.631Z,9.80
2018-10-02T05:04:25.730Z,9.82
2018-10-02T05:05:25.668Z,9.81
2018-10-02T05:06:25.694Z,9.80
2018-10-02T05:07:25.739Z,9.80
2018-10-02T05:08:25.693Z,9.73
2018-10-02T05:09:25.722Z,9.76
2018-10-02T05:10:25.647Z,9.72
2018-10-02T05:11:25.627Z,9.76
2018-10-02T05:12:25.661Z,9.84
2018-10-02T05:13:25.673Z,9.90
2018-10-02T05:14:25.634Z,9.84
2018-10-02T05:15:25.651Z,9.88
2018-10-02T05:16:25.705Z,9.90
2018-10-02T05:17:25.667Z,9.77
2018-10-02T05:18:25.705Z,9.81
2018-10-02T05:19:25.665Z,9.82
2018-10-02T05:20:25.664Z,9.85
2018-10-02T05:21:25.682Z,9.82
2018-10-02T05:22:25.684Z,9.82
2018-10-02T05:23:25.701Z,9.82
2018-10-02T05:24:25.723Z,9.81
2018-10-02T05:25:25.704Z,9.91
2018-10-02T05:26:25.695Z,9.87
2018-10-02T05:27:25.795Z,9.91
2018-10-02T05:28:25.724Z,9.90
2018-10-02T05:29:25.766Z,9.94
2018-10-02T05:30:25.755Z,9.90
2018-10-02T05:31:25.742Z,9.92
2018-10-02T05:32:25.733Z,9.94
2018-10-02T05:33:25.748Z,9.92
2018-10-02T05:34:26.821Z,9.97
2018-10-02T05:35:25.830Z,9.88
2018-10-02T05:36:25.756Z,9.97
2018-10-02T05:37:25.799Z,9.94
2018-10-02T05:38:25.769Z,9.91
2018-10-02T05:39:25.771Z,10.00
2018-10-02T05:40:25.775Z,9.99
2018-10-02T05:41:25.799Z,9.95
2018-10-02T05:42:25.840Z,9.97
2018-10-02T05:43:25.803Z,9.92
2018-10-02T05:44:25.801Z,9.91
2018-10-02T05:45:25.926Z,9.91
2018-10-02T05:46:25.827Z,10.03
2018-10-02T05:47:25.845Z,10.12
2018-10-02T05:48:25.835Z,9.92
2018-10-02T05:49:25.839Z,10.00
2018-10-02T05:50:25.826Z,10.03
2018-10-02T05:51:25.829Z,10.15
2018-10-02T05:52:25.850Z,10.12
2018-10-02T05:53:25.884Z,10.09
2018-10-02T05:54:25.870Z,10.12
2018-10-02T05:55:25.876Z,10.07
2018-10-02T05:56:25.877Z,10.07
2018-10-02T05:57:25.885Z,10.10
2018-10-02T05:58:25.884Z,10.20
2018-10-02T05:59:25.883Z,10.25
2018-10-02T06:00:25.930Z,10.27
2018-10-02T06:01:25.917Z,10.23
2018-10-02T06:02:25.901Z,10.27
2018-10-02T06:03:25.906Z,10.20
2018-10-02T06:04:25.908Z,10.27
2018-10-02T06:05:25.906Z,10.23
2018-10-02T06:06:25.963Z,10.27
2018-10-02T06:07:25.911Z,10.33
2018-10-02T06:08:25.974Z,10.31
2018-10-02T06:09:25.972Z,10.31
2018-10-02T06:10:25.934Z,10.28
2018-10-02T06:11:25.938Z,10.31
2018-10-02T06:12:25.957Z,10.31
2018-10-02T06:13:26.003Z,10.39
2018-10-02T06:14:25.982Z,10.30
2018-10-02T06:15:25.967Z,10.33
2018-10-02T06:16:25.976Z,10.28
2018-10-02T06:17:26.010Z,10.30
2018-10-02T06:18:25.982Z,10.34
2018-10-02T06:19:26.023Z,10.33
2018-10-02T06:20:26.004Z,10.39
2018-10-02T06:21:26.010Z,10.38
2018-10-02T06:22:26.008Z,10.41
2018-10-02T06:23:26.018Z,10.46
2018-10-02T06:24:26.020Z,10.45
2018-10-02T06:25:26.044Z,10.49
2018-10-02T06:26:26.030Z,10.46
2018-10-02T06:27:26.071Z,10.48
2018-10-02T06:28:26.043Z,10.42
2018-10-02T06:29:26.049Z,10.58
2018-10-02T06:30:26.168Z,10.58
2018-10-02T06:31:26.096Z,10.57
2018-10-02T06:32:26.066Z,10.62
2018-10-02T06:33:26.059Z,10.61
2018-10-02T06:34:26.088Z,10.59
2018-10-02T06:35:26.083Z,10.64
2018-10-02T06:36:26.093Z,10.65
2018-10-02T06:37:26.124Z,10.69
2018-10-02T06:38:26.257Z,10.69
2018-10-02T06:39:26.094Z,10.72
2018-10-02T06:40:26.145Z,10.61
2018-10-02T06:41:26.134Z,10.69
2018-10-02T06:42:26.121Z,10.76
2018-10-02T06:43:26.162Z,10.79
2018-10-02T06:44:26.289Z,10.77
2018-10-02T06:45:26.146Z,10.69
2018-10-02T06:46:26.191Z,10.86
2018-10-02T06:47:26.148Z,10.87
2018-10-02T06:48:26.158Z,10.95
2018-10-02T06:49:26.159Z,10.98
2018-10-02T06:50:26.173Z,10.98
2018-10-02T06:51:26.357Z,11.08
2018-10-02T06:52:26.287Z,11.05
2018-10-02T06:53:26.176Z,11.18
2018-10-02T06:54:26.183Z,11.31
2018-10-02T06:55:26.194Z,11.31
2018-10-02T06:56:26.226Z,11.40
2018-10-02T06:57:26.223Z,11.45
2018-10-02T06:58:26.214Z,11.48
2018-10-02T06:59:26.241Z,11.51
2018-10-02T07:00:26.272Z,11.45
2018-10-02T07:01:26.247Z,11.62
2018-10-02T07:02:26.247Z,11.60
2018-10-02T07:03:26.241Z,11.67
2018-10-02T07:04:26.242Z,11.71
2018-10-02T07:05:26.278Z,11.73
2018-10-02T07:06:26.262Z,11.85
2018-10-02T07:07:26.277Z,11.77
2018-10-02T07:08:26.339Z,11.78
2018-10-02T07:09:26.277Z,11.89
2018-10-02T07:10:26.323Z,11.99
2018-10-02T07:11:26.305Z,11.99
2018-10-02T07:12:26.331Z,11.95
2018-10-02T07:13:26.306Z,11.95
2018-10-02T07:14:26.328Z,12.05
2018-10-02T07:15:26.318Z,12.11
2018-10-02T07:16:26.324Z,12.15
2018-10-02T07:17:26.449Z,12.17
2018-10-02T07:18:26.344Z,12.20
2018-10-02T07:19:26.352Z,12.30
2018-10-02T07:20:26.413Z,12.32
2018-10-02T07:21:26.356Z,12.40
2018-10-02T07:22:26.395Z,12.45
2018-10-02T07:23:26.379Z,12.50
2018-10-02T07:24:26.404Z,12.40
2018-10-02T07:25:26.408Z,12.39
2018-10-02T07:26:26.432Z,12.58
2018-10-02T07:27:26.500Z,12.63
2018-10-02T07:28:26.561Z,12.55
2018-10-02T07:29:26.411Z,12.57
2018-10-02T07:30:26.476Z,12.62
2018-10-02T07:31:26.420Z,12.62
2018-10-02T07:32:26.443Z,12.70
2018-10-02T07:33:26.462Z,12.70
2018-10-02T07:34:26.449Z,12.66
2018-10-02T07:35:26.478Z,12.69
2018-10-02T07:36:26.527Z,12.65
2018-10-02T07:37:26.473Z,12.70
2018-10-02T07:38:26.541Z,12.70
2018-10-02T07:39:26.540Z,12.68
2018-10-02T07:40:26.490Z,12.78
2018-10-02T07:41:26.559Z,12.78
2018-10-02T07:42:26.613Z,12.84
2018-10-02T07:43:26.507Z,12.75
2018-10-02T07:44:26.586Z,12.72
2018-10-02T07:45:26.523Z,12.73
2018-10-02T07:46:26.541Z,12.78
2018-10-02T07:47:26.613Z,12.84
2018-10-02T07:48:26.593Z,12.72
2018-10-02T07:49:26.601Z,12.73
2018-10-02T07:50:26.611Z,12.87
2018-10-02T07:51:26.593Z,12.87
2018-10-02T07:52:26.571Z,12.83
2018-10-02T07:53:26.585Z,12.90
2018-10-02T07:54:26.608Z,12.80
2018-10-02T07:55:26.672Z,12.73
2018-10-02T07:56:26.664Z,12.83
2018-10-02T07:57:26.611Z,12.93
2018-10-02T07:58:26.610Z,12.83
2018-10-02T07:59:26.680Z,12.91
2018-10-02T08:00:26.647Z,12.88
2018-10-02T08:01:26.673Z,12.84
2018-10-02T08:02:26.637Z,12.91
2018-10-02T08:03:26.648Z,12.86
2018-10-02T08:04:26.653Z,12.88
2018-10-02T08:05:26.720Z,12.84
2018-10-02T08:06:26.692Z,12.87
2018-10-02T08:07:26.710Z,12.94
2018-10-02T08:08:26.688Z,12.88
2018-10-02T08:09:26.721Z,12.86
2018-10-02T08:10:26.698Z,12.83
2018-10-02T08:11:26.718Z,12.81
2018-10-02T08:12:26.812Z,12.78
2018-10-02T08:13:26.762Z,12.76
2018-10-02T08:14:26.763Z,12.78
2018-10-02T08:15:26.766Z,12.88
2018-10-02T08:16:26.724Z,12.93
2018-10-02T08:17:26.783Z,12.90
2018-10-02T08:18:26.806Z,13.03
2018-10-02T08:19:26.744Z,13.11
2018-10-02T08:20:26.797Z,13.08
2018-10-02T08:21:26.774Z,13.11
2018-10-02T08:22:26.779Z,13.20
2018-10-02T08:23:26.827Z,13.19
2018-10-02T08:24:26.799Z,13.09
2018-10-02T08:25:26.823Z,13.16
2018-10-02T08:26:26.818Z,13.17
2018-10-02T08:27:26.826Z,13.17
2018-10-02T08:28:26.823Z,13.26
2018-10-02T08:29:26.953Z,13.43
2018-10-02T08:30:27.028Z,13.45
2018-10-02T08:31:26.859Z,13.40
2018-10-02T08:32:26.873Z,13.43
2018-10-02T08:33:26.887Z,13.54
2018-10-02T08:34:26.876Z,13.55
2018-10-02T08:35:26.943Z,13.54
2018-10-02T08:36:27.001Z,13.64
2018-10-02T08:37:26.888Z,13.68
2018-10-02T08:38:26.921Z,13.64
2018-10-02T08:39:26.896Z,13.64
2018-10-02T08:40:26.917Z,13.80
2018-10-02T08:41:26.916Z,13.83
2018-10-02T08:42:26.952Z,13.89
2018-10-02T08:43:27.015Z,13.98
2018-10-02T08:44:27.000Z,13.98
2018-10-02T08:45:26.941Z,13.87
2018-10-02T08:46:26.960Z,14.00
2018-10-02T08:47:27.024Z,14.04
2018-10-02T08:48:26.975Z,14.04
2018-10-02T08:49:26.984Z,14.20
2018-10-02T08:50:27.016Z,14.23
2018-10-02T08:51:27.000Z,14.28
2018-10-02T08:52:27.029Z,14.37
2018-10-02T08:53:27.026Z,14.44
2018-10-02T08:54:27.184Z,14.49
2018-10-02T08:55:27.045Z,14.53
2018-10-02T08:56:27.097Z,14.51
2018-10-02T08:57:27.073Z,14.51
2018-10-02T08:58:27.081Z,14.59
2018-10-02T08:59:27.065Z,14.61
2018-10-02T09:00:27.120Z,14.67
2018-10-02T09:01:27.077Z,14.71
2018-10-02T09:02:27.091Z,14.74
2018-10-02T09:03:27.116Z,14.77
2018-10-02T09:04:27.110Z,14.79
2018-10-02T09:05:27.102Z,14.78
2018-10-02T09:06:27.112Z,14.79
2018-10-02T09:07:27.159Z,14.81
2018-10-02T09:08:27.144Z,14.96
2018-10-02T09:09:27.131Z,14.90
2018-10-02T09:10:27.268Z,14.96
2018-10-02T09:11:27.177Z,14.99
2018-10-02T09:12:27.220Z,14.96
2018-10-02T09:13:27.201Z,15.07
2018-10-02T09:14:27.201Z,15.05
2018-10-02T09:15:27.296Z,15.11
2018-10-02T09:16:27.321Z,15.11
2018-10-02T09:17:27.210Z,15.08
2018-10-02T09:18:27.406Z,15.00
2018-10-02T09:19:27.254Z,15.07
2018-10-02T09:20:27.331Z,15.11
2018-10-02T09:21:27.247Z,15.11
2018-10-02T09:22:27.262Z,15.10
2018-10-02T09:23:27.272Z,15.08
2018-10-02T09:24:27.290Z,15.05
2018-10-02T09:25:27.269Z,15.07
2018-10-02T09:26:27.303Z,14.96
2018-10-02T09:27:27.331Z,14.92
2018-10-02T09:28:27.333Z,14.92
2018-10-02T09:29:27.359Z,14.97
2018-10-02T09:30:27.442Z,15.08
2018-10-02T09:31:27.352Z,15.10
2018-10-02T09:32:27.344Z,14.99
2018-10-02T09:33:27.341Z,14.93
2018-10-02T09:34:27.352Z,14.94
2018-10-02T09:35:27.393Z,14.90
2018-10-02T09:36:27.378Z,14.97
2018-10-02T09:37:27.475Z,14.99
2018-10-02T09:38:27.387Z,15.05
2018-10-02T09:39:28.361Z,15.04
2018-10-02T09:40:27.376Z,15.11
2018-10-02T09:41:27.400Z,15.07
2018-10-02T09:42:27.493Z,15.11
2018-10-02T09:43:27.495Z,15.23
2018-10-02T09:44:27.451Z,15.08
2018-10-02T09:45:27.474Z,15.11
2018-10-02T09:46:27.434Z,15.19
2018-10-02T09:47:27.461Z,15.14
2018-10-02T09:48:27.529Z,15.14
2018-10-02T09:49:27.532Z,15.11
2018-10-02T09:50:27.490Z,15.18
2018-10-02T09:51:27.495Z,15.27
2018-10-02T09:52:27.527Z,15.25
2018-10-02T09:53:27.514Z,15.29
2018-10-02T09:54:28.073Z,15.39
2018-10-02T09:55:27.530Z,15.39
2018-10-02T09:56:27.599Z,15.45
2018-10-02T09:57:27.531Z,15.45
2018-10-02T09:58:27.714Z,15.54
2018-10-02T09:59:27.553Z,15.45
2018-10-02T10:00:27.620Z,15.63
2018-10-02T10:01:27.579Z,15.60
2018-10-02T10:02:27.655Z,15.48
2018-10-02T10:03:27.605Z,15.48
2018-10-02T10:04:27.689Z,15.48
2018-10-02T10:05:27.618Z,15.50
2018-10-02T10:06:27.645Z,15.51
2018-10-02T10:07:27.635Z,15.65
2018-10-02T10:08:27.663Z,15.67
2018-10-02T10:09:27.647Z,15.65
2018-10-02T10:10:27.668Z,15.69
2018-10-02T10:11:27.726Z,15.60
2018-10-02T10:12:27.731Z,15.60
2018-10-02T10:13:27.702Z,15.57
2018-10-02T10:14:27.703Z,15.73
2018-10-02T10:15:27.708Z,15.84
2018-10-02T10:16:27.754Z,15.73
2018-10-02T10:17:27.816Z,15.76
2018-10-02T10:18:27.770Z,15.72
2018-10-02T10:19:27.789Z,15.69
2018-10-02T10:20:27.763Z,15.73
2018-10-02T10:21:27.905Z,15.78
2018-10-02T10:22:27.782Z,15.80
2018-10-02T10:23:27.818Z,15.78
2018-10-02T10:24:27.791Z,15.70
2018-10-02T10:25:27.838Z,15.62
2018-10-02T10:26:28.052Z,15.67
2018-10-02T10:27:27.792Z,15.67
2018-10-02T10:28:27.823Z,15.67
2018-10-02T10:29:27.959Z,15.48
2018-10-02T10:30:27.945Z,15.51
2018-10-02T10:31:27.833Z,15.59
2018-10-02T10:32:27.838Z,15.63
2018-10-02T10:33:27.966Z,15.65
2018-10-02T10:34:27.900Z,15.48
2018-10-02T10:35:27.861Z,15.52
2018-10-02T10:36:27.908Z,15.48
2018-10-02T10:37:27.887Z,15.48
2018-10-02T10:38:27.886Z,15.39
2018-10-02T10:39:27.907Z,15.41
2018-10-02T10:40:27.957Z,15.44
2018-10-02T10:41:27.976Z,15.45
2018-10-02T10:42:27.954Z,15.48
2018-10-02T10:43:28.499Z,15.43
2018-10-02T10:44:28.025Z,15.45
2018-10-02T10:45:27.986Z,15.36
2018-10-02T10:46:27.991Z,15.37
2018-10-02T10:47:28.069Z,15.41
2018-10-02T10:48:27.998Z,15.33
2018-10-02T10:49:28.013Z,15.25
2018-10-02T10:50:28.009Z,15.37
2018-10-02T10:51:28.027Z,15.41
2018-10-02T10:52:28.404Z,15.50
2018-10-02T10:53:28.037Z,15.48
2018-10-02T10:54:28.066Z,15.47
2018-10-02T10:55:28.037Z,15.51
2018-10-02T10:56:28.133Z,15.44
2018-10-02T10:57:28.053Z,15.39
2018-10-02T10:58:28.155Z,15.44
2018-10-02T10:59:28.089Z,15.47
2018-10-02T11:00:28.089Z,15.50
2018-10-02T11:01:28.100Z,15.51
2018-10-02T11:02:28.088Z,15.44
2018-10-02T11:03:28.099Z,15.51
2018-10-02T11:04:28.175Z,15.48
2018-10-02T11:05:28.132Z,15.47
2018-10-02T11:06:28.194Z,15.50
2018-10-02T11:07:28.140Z,15.54
2018-10-02T11:08:28.138Z,15.51
2018-10-02T11:09:28.232Z,15.48
2018-10-02T11:10:28.151Z,15.45
2018-10-02T11:11:28.164Z,15.44
2018-10-02T11:12:28.204Z,15.44
2018-10-02T11:13:28.466Z,15.47
2018-10-02T11:14:28.180Z,15.51
2018-10-02T11:15:28.274Z,15.55
2018-10-02T11:16:28.247Z,15.50
2018-10-02T11:17:28.246Z,15.51
2018-10-02T11:18:28.257Z,15.50
2018-10-02T11:19:28.991Z,15.45
2018-10-02T11:20:28.266Z,15.44
2018-10-02T11:21:28.281Z,15.41
2018-10-02T11:22:28.255Z,15.39
2018-10-02T11:23:28.293Z,15.37
2018-10-02T11:24:28.355Z,15.27
2018-10-02T11:25:28.392Z,15.33
2018-10-02T11:26:28.312Z,15.30
2018-10-02T11:27:28.302Z,15.33
2018-10-02T11:28:28.316Z,15.26
2018-10-02T11:29:28.339Z,15.23
2018-10-02T11:30:28.326Z,15.07
2018-10-02T11:31:28.393Z,15.11
2018-10-02T11:32:28.406Z,15.08
2018-10-02T11:33:29.095Z,15.10
2018-10-02T11:34:28.364Z,15.07
2018-10-02T11:35:28.471Z,15.04
2018-10-02T11:36:28.376Z,15.04
2018-10-02T11:37:28.415Z,14.87
2018-10-02T11:38:28.411Z,14.87
2018-10-02T11:39:28.496Z,14.78
2018-10-02T11:40:28.409Z,14.79
2018-10-02T11:41:28.408Z,14.86
2018-10-02T11:42:28.483Z,14.86
2018-10-02T11:43:28.624Z,14.85
2018-10-02T11:44:28.478Z,14.73
2018-10-02T11:45:28.499Z,14.86
2018-10-02T11:46:28.465Z,14.74
2018-10-02T11:47:28.524Z,14.73
2018-10-02T11:48:28.501Z,14.87
2018-10-02T11:49:28.495Z,14.89
2018-10-02T11:50:28.504Z,14.73
2018-10-02T11:51:28.500Z,14.82
2018-10-02T11:52:28.535Z,14.94
2018-10-02T11:53:28.551Z,14.93
2018-10-02T11:54:28.519Z,15.08
2018-10-02T11:55:28.594Z,14.92
2018-10-02T11:56:28.533Z,14.94
2018-10-02T11:57:28.602Z,14.99
2018-10-02T11:58:28.551Z,15.02
2018-10-02T11:59:28.591Z,14.97
2018-10-02T12:00:28.658Z,15.11
2018-10-02T12:01:28.668Z,15.14
2018-10-02T12:02:28.737Z,15.08
2018-10-02T12:03:28.620Z,15.15
2018-10-02T12:04:28.641Z,15.10
2018-10-02T12:05:28.680Z,15.25
2018-10-02T12:06:28.656Z,15.19
2018-10-02T12:07:28.632Z,15.30
2018-10-02T12:08:28.650Z,15.12
2018-10-02T12:09:28.679Z,15.25
2018-10-02T12:10:28.667Z,15.26
2018-10-02T12:11:28.713Z,15.23
2018-10-02T12:12:28.807Z,15.29
2018-10-02T12:13:28.734Z,15.26
2018-10-02T12:14:28.943Z,15.43
2018-10-02T12:15:28.730Z,15.45
2018-10-02T12:16:28.729Z,15.52
2018-10-02T12:17:28.746Z,15.51
2018-10-02T12:18:28.740Z,15.50
2018-10-02T12:19:28.959Z,15.63
2018-10-02T12:20:28.743Z,15.60
2018-10-02T12:21:28.872Z,15.66
2018-10-02T12:22:28.797Z,15.48
2018-10-02T12:23:28.814Z,15.48
2018-10-02T12:24:28.773Z,15.55
2018-10-02T12:25:28.770Z,15.54
2018-10-02T12:26:28.776Z,15.51
2018-10-02T12:27:28.844Z,15.57
2018-10-02T12:28:28.827Z,15.57
2018-10-02T12:29:28.835Z,15.63
2018-10-02T12:30:28.815Z,15.67
2018-10-02T12:31:28.877Z,15.73
2018-10-02T12:32:28.882Z,15.75
2018-10-02T12:33:28.864Z,15.76
2018-10-02T12:34:28.869Z,15.73
2018-10-02T12:35:28.923Z,15.73
2018-10-02T12:36:28.882Z,15.84
2018-10-02T12:37:28.907Z,15.83
2018-10-02T12:38:28.939Z,15.85
2018-10-02T12:39:28.903Z,15.75
2018-10-02T12:40:28.988Z,15.75
2018-10-02T12:41:28.948Z,15.76
2018-10-02T12:42:28.950Z,15.78
2018-10-02T12:43:28.976Z,15.75
2018-10-02T12:44:29.915Z,15.87
2018-10-02T12:45:28.956Z,15.90
2018-10-02T12:46:29.930Z,15.85
2018-10-02T12:47:28.971Z,15.85
2018-10-02T12:48:29.012Z,15.85
2018-10-02T12:49:28.974Z,15.73
2018-10-02T12:50:29.026Z,15.76
2018-10-02T12:51:29.060Z,15.80
2018-10-02T12:52:29.077Z,15.87
2018-10-02T12:53:29.003Z,15.78
2018-10-02T12:54:29.774Z,15.76
2018-10-02T12:55:29.088Z,15.80
2018-10-02T12:56:29.099Z,15.72
2018-10-02T12:57:29.086Z,15.67
2018-10-02T12:58:29.054Z,15.76
2018-10-02T12:59:29.201Z,15.75